sensor_id;sensor_type;location;lat;lon;timestamp;P1;durP1;ratioP1;P2;durP2;ratioP2
40449;SDS011;41787;53.570;10.032;2022-09-23T00:01:21;4.07;;;1.73;;
40449;SDS011;41787;53.570;10.032;2022-09-23T00:03:47;3.92;;;1.88;;
40449;SDS011;41787;53.570;10.032;2022-09-23T00:06:17;2.05;;;1.65;;
40449;SDS011;41787;53.570;10.032;2022-09-23T00:11:10;6.65;;;1.83;;
40449;SDS011;41787;53.570;10.032;2022-09-23T00:13:37;2.03;;;1.70;;
40449;SDS011;41787;53.570;10.032;2022-09-23T00:16:04;3.53;;;1.50;;
40449;SDS011;41787;53.570;10.032;2022-09-23T00:18:31;3.42;;;1.58;;
40449;SDS011;41787;53.570;10.032;2022-09-23T00:21:00;3.85;;;1.77;;
40449;SDS011;41787;53.570;10.032;2022-09-23T00:23:26;2.10;;;1.55;;
40449;SDS011;41787;53.570;10.032;2022-09-23T00:25:56;2.40;;;1.60;;
40449;SDS011;41787;53.570;10.032;2022-09-23T00:28:22;5.00;;;1.73;;
40449;SDS011;41787;53.570;10.032;2022-09-23T00:30:48;1.95;;;1.52;;
40449;SDS011;41787;53.570;10.032;2022-09-23T00:33:14;2.63;;;1.70;;
40449;SDS011;41787;53.570;10.032;2022-09-23T00:35:40;9.95;;;1.60;;
40449;SDS011;41787;53.570;10.032;2022-09-23T00:38:06;6.45;;;1.95;;
40449;SDS011;41787;53.570;10.032;2022-09-23T00:40:32;2.10;;;1.50;;
40449;SDS011;41787;53.570;10.032;2022-09-23T00:42:58;5.32;;;1.60;;
40449;SDS011;41787;53.570;10.032;2022-09-23T00:45:24;2.85;;;1.80;;
40449;SDS011;41787;53.570;10.032;2022-09-23T00:48:00;2.80;;;1.67;;
40449;SDS011;41787;53.570;10.032;2022-09-23T00:50:33;2.42;;;1.23;;
40449;SDS011;41787;53.570;10.032;2022-09-23T00:53:04;2.72;;;1.63;;
40449;SDS011;41787;53.570;10.032;2022-09-23T00:57:57;2.42;;;1.42;;
40449;SDS011;41787;53.570;10.032;2022-09-23T01:00:23;2.47;;;1.42;;
40449;SDS011;41787;53.570;10.032;2022-09-23T01:02:49;2.08;;;1.65;;
40449;SDS011;41787;53.570;10.032;2022-09-23T01:05:16;4.90;;;1.52;;
40449;SDS011;41787;53.570;10.032;2022-09-23T01:07:42;2.90;;;1.67;;
40449;SDS011;41787;53.570;10.032;2022-09-23T01:10:08;2.47;;;1.67;;
40449;SDS011;41787;53.570;10.032;2022-09-23T01:12:41;3.20;;;1.40;;
40449;SDS011;41787;53.570;10.032;2022-09-23T01:15:22;1.92;;;1.27;;
40449;SDS011;41787;53.570;10.032;2022-09-23T01:20:23;5.45;;;1.38;;
40449;SDS011;41787;53.570;10.032;2022-09-23T01:25:30;1.48;;;1.30;;
40449;SDS011;41787;53.570;10.032;2022-09-23T01:33:03;3.13;;;1.40;;
40449;SDS011;41787;53.570;10.032;2022-09-23T01:38:10;4.55;;;1.40;;
40449;SDS011;41787;53.570;10.032;2022-09-23T01:40:50;2.35;;;1.30;;
40449;SDS011;41787;53.570;10.032;2022-09-23T01:43:23;3.28;;;1.65;;
40449;SDS011;41787;53.570;10.032;2022-09-23T01:45:51;4.07;;;1.63;;
40449;SDS011;41787;53.570;10.032;2022-09-23T01:48:22;7.85;;;1.88;;
40449;SDS011;41787;53.570;10.032;2022-09-23T01:50:54;1.60;;;1.20;;
40449;SDS011;41787;53.570;10.032;2022-09-23T01:55:55;2.60;;;1.60;;
40449;SDS011;41787;53.570;10.032;2022-09-23T01:58:26;2.27;;;1.20;;
40449;SDS011;41787;53.570;10.032;2022-09-23T02:00:54;3.58;;;1.20;;
40449;SDS011;41787;53.570;10.032;2022-09-23T02:03:25;5.72;;;1.60;;
40449;SDS011;41787;53.570;10.032;2022-09-23T02:05:55;5.07;;;1.52;;
40449;SDS011;41787;53.570;10.032;2022-09-23T02:08:25;2.85;;;1.70;;
40449;SDS011;41787;53.570;10.032;2022-09-23T02:10:53;3.08;;;1.58;;
40449;SDS011;41787;53.570;10.032;2022-09-23T02:13:39;1.92;;;1.30;;
40449;SDS011;41787;53.570;10.032;2022-09-23T02:16:11;3.45;;;1.42;;
40449;SDS011;41787;53.570;10.032;2022-09-23T02:18:40;1.88;;;1.63;;
40449;SDS011;41787;53.570;10.032;2022-09-23T02:21:07;4.15;;;1.80;;
40449;SDS011;41787;53.570;10.032;2022-09-23T02:23:37;4.30;;;1.60;;
40449;SDS011;41787;53.570;10.032;2022-09-23T02:31:20;1.88;;;1.52;;
40449;SDS011;41787;53.570;10.032;2022-09-23T02:33:56;1.88;;;1.58;;
40449;SDS011;41787;53.570;10.032;2022-09-23T02:36:34;3.15;;;1.40;;
40449;SDS011;41787;53.570;10.032;2022-09-23T02:39:06;2.10;;;1.60;;
40449;SDS011;41787;53.570;10.032;2022-09-23T02:41:34;4.07;;;1.58;;
40449;SDS011;41787;53.570;10.032;2022-09-23T02:44:05;1.55;;;1.33;;
40449;SDS011;41787;53.570;10.032;2022-09-23T02:46:32;6.50;;;1.70;;
40449;SDS011;41787;53.570;10.032;2022-09-23T02:49:09;2.45;;;1.40;;
40449;SDS011;41787;53.570;10.032;2022-09-23T02:51:36;3.70;;;1.65;;
40449;SDS011;41787;53.570;10.032;2022-09-23T02:54:03;3.47;;;1.50;;
40449;SDS011;41787;53.570;10.032;2022-09-23T02:56:31;3.38;;;1.60;;
40449;SDS011;41787;53.570;10.032;2022-09-23T02:58:57;2.10;;;1.50;;
40449;SDS011;41787;53.570;10.032;2022-09-23T03:09:20;3.20;;;1.50;;
40449;SDS011;41787;53.570;10.032;2022-09-23T03:11:47;5.22;;;1.95;;
40449;SDS011;41787;53.570;10.032;2022-09-23T03:14:24;1.92;;;1.38;;
40449;SDS011;41787;53.570;10.032;2022-09-23T03:16:54;4.85;;;1.63;;
40449;SDS011;41787;53.570;10.032;2022-09-23T03:19:33;4.50;;;1.70;;
40449;SDS011;41787;53.570;10.032;2022-09-23T03:24:45;3.58;;;1.80;;
40449;SDS011;41787;53.570;10.032;2022-09-23T03:27:13;2.13;;;1.58;;
40449;SDS011;41787;53.570;10.032;2022-09-23T03:29:42;6.68;;;1.60;;
40449;SDS011;41787;53.570;10.032;2022-09-23T03:32:11;1.85;;;1.33;;
40449;SDS011;41787;53.570;10.032;2022-09-23T03:34:37;4.18;;;1.80;;
40449;SDS011;41787;53.570;10.032;2022-09-23T03:40:06;3.35;;;1.52;;
40449;SDS011;41787;53.570;10.032;2022-09-23T03:42:34;4.22;;;1.65;;
40449;SDS011;41787;53.570;10.032;2022-09-23T03:45:01;9.80;;;1.52;;
40449;SDS011;41787;53.570;10.032;2022-09-23T03:47:30;3.00;;;1.20;;
40449;SDS011;41787;53.570;10.032;2022-09-23T03:49:56;4.20;;;1.60;;
40449;SDS011;41787;53.570;10.032;2022-09-23T03:52:22;3.72;;;1.60;;
40449;SDS011;41787;53.570;10.032;2022-09-23T03:54:48;4.07;;;1.45;;
40449;SDS011;41787;53.570;10.032;2022-09-23T03:57:16;5.72;;;1.73;;
40449;SDS011;41787;53.570;10.032;2022-09-23T03:59:42;5.50;;;1.35;;
40449;SDS011;41787;53.570;10.032;2022-09-23T04:02:08;2.70;;;1.50;;
40449;SDS011;41787;53.570;10.032;2022-09-23T04:04:34;2.90;;;1.48;;
40449;SDS011;41787;53.570;10.032;2022-09-23T04:07:00;2.83;;;1.48;;
40449;SDS011;41787;53.570;10.032;2022-09-23T04:09:26;7.68;;;1.65;;
40449;SDS011;41787;53.570;10.032;2022-09-23T04:11:52;1.70;;;1.45;;
40449;SDS011;41787;53.570;10.032;2022-09-23T04:14:19;4.40;;;1.67;;
40449;SDS011;41787;53.570;10.032;2022-09-23T04:16:45;1.85;;;1.33;;
40449;SDS011;41787;53.570;10.032;2022-09-23T04:19:12;4.78;;;1.55;;
40449;SDS011;41787;53.570;10.032;2022-09-23T04:21:38;3.13;;;1.50;;
40449;SDS011;41787;53.570;10.032;2022-09-23T04:24:04;2.70;;;1.45;;
40449;SDS011;41787;53.570;10.032;2022-09-23T04:26:31;2.95;;;1.50;;
40449;SDS011;41787;53.570;10.032;2022-09-23T04:28:57;2.92;;;1.67;;
40449;SDS011;41787;53.570;10.032;2022-09-23T04:31:23;3.15;;;1.50;;
40449;SDS011;41787;53.570;10.032;2022-09-23T04:33:51;5.22;;;1.60;;
40449;SDS011;41787;53.570;10.032;2022-09-23T04:36:17;4.47;;;1.42;;
40449;SDS011;41787;53.570;10.032;2022-09-23T04:38:44;3.10;;;1.40;;
40449;SDS011;41787;53.570;10.032;2022-09-23T04:41:10;5.07;;;2.00;;
40449;SDS011;41787;53.570;10.032;2022-09-23T04:43:36;3.22;;;1.73;;
40449;SDS011;41787;53.570;10.032;2022-09-23T04:46:04;5.28;;;1.73;;
40449;SDS011;41787;53.570;10.032;2022-09-23T04:48:30;6.53;;;1.92;;
40449;SDS011;41787;53.570;10.032;2022-09-23T04:51:06;4.20;;;1.48;;
40449;SDS011;41787;53.570;10.032;2022-09-23T04:53:33;5.00;;;1.83;;
40449;SDS011;41787;53.570;10.032;2022-09-23T04:56:09;5.18;;;1.77;;
40449;SDS011;41787;53.570;10.032;2022-09-23T04:58:36;2.95;;;1.42;;
40449;SDS011;41787;53.570;10.032;2022-09-23T05:01:15;3.53;;;1.40;;
40449;SDS011;41787;53.570;10.032;2022-09-23T05:03:41;2.63;;;1.38;;
40449;SDS011;41787;53.570;10.032;2022-09-23T05:06:08;3.35;;;2.08;;
40449;SDS011;41787;53.570;10.032;2022-09-23T05:08:38;6.13;;;1.90;;
40449;SDS011;41787;53.570;10.032;2022-09-23T05:11:04;3.28;;;1.90;;
40449;SDS011;41787;53.570;10.032;2022-09-23T05:13:30;4.13;;;1.80;;
40449;SDS011;41787;53.570;10.032;2022-09-23T05:16:01;6.55;;;2.17;;
40449;SDS011;41787;53.570;10.032;2022-09-23T05:18:30;5.35;;;1.60;;
40449;SDS011;41787;53.570;10.032;2022-09-23T05:20:56;9.57;;;1.93;;
40449;SDS011;41787;53.570;10.032;2022-09-23T05:23:22;5.63;;;2.10;;
40449;SDS011;41787;53.570;10.032;2022-09-23T05:25:54;7.57;;;1.98;;
40449;SDS011;41787;53.570;10.032;2022-09-23T05:28:21;6.05;;;2.33;;
40449;SDS011;41787;53.570;10.032;2022-09-23T05:30:47;7.70;;;2.50;;
40449;SDS011;41787;53.570;10.032;2022-09-23T05:33:13;5.88;;;2.15;;
40449;SDS011;41787;53.570;10.032;2022-09-23T05:35:38;5.20;;;2.05;;
40449;SDS011;41787;53.570;10.032;2022-09-23T05:38:10;8.90;;;2.42;;
40449;SDS011;41787;53.570;10.032;2022-09-23T05:40:36;7.18;;;2.70;;
40449;SDS011;41787;53.570;10.032;2022-09-23T05:43:02;5.55;;;1.85;;
40449;SDS011;41787;53.570;10.032;2022-09-23T05:45:28;3.90;;;1.98;;
40449;SDS011;41787;53.570;10.032;2022-09-23T05:47:56;4.68;;;2.10;;
40449;SDS011;41787;53.570;10.032;2022-09-23T05:50:21;7.03;;;2.03;;
40449;SDS011;41787;53.570;10.032;2022-09-23T05:52:47;4.95;;;1.88;;
40449;SDS011;41787;53.570;10.032;2022-09-23T05:55:13;6.03;;;2.08;;
40449;SDS011;41787;53.570;10.032;2022-09-23T05:57:39;8.35;;;2.17;;
40449;SDS011;41787;53.570;10.032;2022-09-23T06:00:06;2.53;;;1.52;;
40449;SDS011;41787;53.570;10.032;2022-09-23T06:02:32;4.43;;;1.70;;
40449;SDS011;41787;53.570;10.032;2022-09-23T06:04:58;6.70;;;1.88;;
40449;SDS011;41787;53.570;10.032;2022-09-23T06:07:24;9.98;;;2.10;;
40449;SDS011;41787;53.570;10.032;2022-09-23T06:09:51;12.27;;;2.55;;
40449;SDS011;41787;53.570;10.032;2022-09-23T06:12:17;5.82;;;2.00;;
40449;SDS011;41787;53.570;10.032;2022-09-23T06:14:43;4.95;;;1.77;;
40449;SDS011;41787;53.570;10.032;2022-09-23T06:17:10;3.80;;;2.40;;
40449;SDS011;41787;53.570;10.032;2022-09-23T06:19:35;3.42;;;2.13;;
40449;SDS011;41787;53.570;10.032;2022-09-23T06:22:01;4.95;;;1.98;;
40449;SDS011;41787;53.570;10.032;2022-09-23T06:24:27;4.00;;;2.05;;
40449;SDS011;41787;53.570;10.032;2022-09-23T06:26:53;3.20;;;1.90;;
40449;SDS011;41787;53.570;10.032;2022-09-23T06:29:19;4.57;;;2.15;;
40449;SDS011;41787;53.570;10.032;2022-09-23T06:31:47;8.20;;;2.03;;
40449;SDS011;41787;53.570;10.032;2022-09-23T06:34:13;3.42;;;2.05;;
40449;SDS011;41787;53.570;10.032;2022-09-23T06:36:40;3.15;;;2.65;;
40449;SDS011;41787;53.570;10.032;2022-09-23T06:39:06;4.90;;;2.50;;
40449;SDS011;41787;53.570;10.032;2022-09-23T06:41:32;6.45;;;2.60;;
40449;SDS011;41787;53.570;10.032;2022-09-23T06:43:58;10.73;;;1.90;;
40449;SDS011;41787;53.570;10.032;2022-09-23T06:46:24;3.95;;;2.05;;
40449;SDS011;41787;53.570;10.032;2022-09-23T06:48:49;9.63;;;2.83;;
40449;SDS011;41787;53.570;10.032;2022-09-23T06:51:15;13.32;;;2.13;;
40449;SDS011;41787;53.570;10.032;2022-09-23T06:53:46;4.22;;;1.92;;
40449;SDS011;41787;53.570;10.032;2022-09-23T06:56:12;6.05;;;1.92;;
40449;SDS011;41787;53.570;10.032;2022-09-23T06:58:38;5.60;;;2.17;;
40449;SDS011;41787;53.570;10.032;2022-09-23T07:01:05;5.15;;;1.85;;
40449;SDS011;41787;53.570;10.032;2022-09-23T07:03:32;4.82;;;1.92;;
40449;SDS011;41787;53.570;10.032;2022-09-23T07:05:58;6.50;;;2.13;;
40449;SDS011;41787;53.570;10.032;2022-09-23T07:08:24;3.88;;;2.15;;
40449;SDS011;41787;53.570;10.032;2022-09-23T07:10:51;9.55;;;2.45;;
40449;SDS011;41787;53.570;10.032;2022-09-23T07:13:18;4.85;;;2.53;;
40449;SDS011;41787;53.570;10.032;2022-09-23T07:15:50;4.78;;;2.20;;
40449;SDS011;41787;53.570;10.032;2022-09-23T07:18:18;7.72;;;2.10;;
40449;SDS011;41787;53.570;10.032;2022-09-23T07:20:44;4.18;;;2.20;;
40449;SDS011;41787;53.570;10.032;2022-09-23T07:23:10;4.85;;;2.30;;
40449;SDS011;41787;53.570;10.032;2022-09-23T07:25:36;8.93;;;2.03;;
40449;SDS011;41787;53.570;10.032;2022-09-23T07:28:02;4.93;;;1.77;;
40449;SDS011;41787;53.570;10.032;2022-09-23T07:30:29;5.28;;;2.08;;
40449;SDS011;41787;53.570;10.032;2022-09-23T07:32:55;6.40;;;2.30;;
40449;SDS011;41787;53.570;10.032;2022-09-23T07:35:21;3.80;;;1.80;;
40449;SDS011;41787;53.570;10.032;2022-09-23T07:37:48;4.32;;;1.88;;
40449;SDS011;41787;53.570;10.032;2022-09-23T07:40:14;6.80;;;2.83;;
40449;SDS011;41787;53.570;10.032;2022-09-23T07:42:40;5.95;;;2.30;;
40449;SDS011;41787;53.570;10.032;2022-09-23T07:45:07;4.00;;;1.98;;
40449;SDS011;41787;53.570;10.032;2022-09-23T07:47:33;6.75;;;2.10;;
40449;SDS011;41787;53.570;10.032;2022-09-23T07:49:59;11.57;;;2.20;;
40449;SDS011;41787;53.570;10.032;2022-09-23T07:52:25;6.47;;;2.03;;
40449;SDS011;41787;53.570;10.032;2022-09-23T07:54:51;4.38;;;1.95;;
40449;SDS011;41787;53.570;10.032;2022-09-23T07:57:17;4.88;;;1.95;;
40449;SDS011;41787;53.570;10.032;2022-09-23T07:59:43;10.45;;;2.42;;
40449;SDS011;41787;53.570;10.032;2022-09-23T08:02:09;5.22;;;2.30;;
40449;SDS011;41787;53.570;10.032;2022-09-23T08:04:38;4.13;;;2.10;;
40449;SDS011;41787;53.570;10.032;2022-09-23T08:07:04;6.07;;;2.00;;
40449;SDS011;41787;53.570;10.032;2022-09-23T08:09:31;3.38;;;1.90;;
40449;SDS011;41787;53.570;10.032;2022-09-23T08:11:57;6.22;;;2.10;;
40449;SDS011;41787;53.570;10.032;2022-09-23T08:14:24;5.38;;;2.05;;
40449;SDS011;41787;53.570;10.032;2022-09-23T08:16:50;6.53;;;2.10;;
40449;SDS011;41787;53.570;10.032;2022-09-23T08:19:16;4.25;;;2.08;;
40449;SDS011;41787;53.570;10.032;2022-09-23T08:21:42;3.95;;;1.90;;
40449;SDS011;41787;53.570;10.032;2022-09-23T08:24:11;10.45;;;2.10;;
40449;SDS011;41787;53.570;10.032;2022-09-23T08:26:38;4.45;;;2.30;;
40449;SDS011;41787;53.570;10.032;2022-09-23T08:29:04;4.32;;;2.00;;
40449;SDS011;41787;53.570;10.032;2022-09-23T08:31:30;4.65;;;1.80;;
40449;SDS011;41787;53.570;10.032;2022-09-23T08:33:57;4.25;;;1.70;;
40449;SDS011;41787;53.570;10.032;2022-09-23T08:36:23;5.18;;;1.90;;
40449;SDS011;41787;53.570;10.032;2022-09-23T08:38:50;4.28;;;2.00;;
40449;SDS011;41787;53.570;10.032;2022-09-23T08:44:09;9.40;;;2.22;;
40449;SDS011;41787;53.570;10.032;2022-09-23T08:46:39;3.08;;;1.70;;
40449;SDS011;41787;53.570;10.032;2022-09-23T08:49:07;8.15;;;1.85;;
40449;SDS011;41787;53.570;10.032;2022-09-23T08:51:42;9.82;;;1.90;;
40449;SDS011;41787;53.570;10.032;2022-09-23T08:54:12;5.15;;;1.90;;
40449;SDS011;41787;53.570;10.032;2022-09-23T08:56:41;6.75;;;2.05;;
40449;SDS011;41787;53.570;10.032;2022-09-23T08:59:10;4.38;;;2.20;;
40449;SDS011;41787;53.570;10.032;2022-09-23T09:01:39;6.82;;;2.03;;
40449;SDS011;41787;53.570;10.032;2022-09-23T09:04:16;5.35;;;2.17;;
40449;SDS011;41787;53.570;10.032;2022-09-23T09:09:56;8.90;;;1.58;;
40449;SDS011;41787;53.570;10.032;2022-09-23T09:12:10;4.53;;;1.90;;
40449;SDS011;41787;53.570;10.032;2022-09-23T09:17:23;12.07;;;2.60;;
40449;SDS011;41787;53.570;10.032;2022-09-23T09:20:06;8.45;;;2.85;;
40449;SDS011;41787;53.570;10.032;2022-09-23T09:27:50;6.82;;;1.45;;
40449;SDS011;41787;53.570;10.032;2022-09-23T09:30:16;2.85;;;1.45;;
40449;SDS011;41787;53.570;10.032;2022-09-23T09:33:02;4.05;;;1.80;;
40449;SDS011;41787;53.570;10.032;2022-09-23T09:40:26;3.88;;;1.30;;
40449;SDS011;41787;53.570;10.032;2022-09-23T09:42:52;4.22;;;1.55;;
40449;SDS011;41787;53.570;10.032;2022-09-23T09:50:46;5.10;;;2.03;;
40449;SDS011;41787;53.570;10.032;2022-09-23T09:53:26;5.35;;;2.03;;
40449;SDS011;41787;53.570;10.032;2022-09-23T09:58:20;8.23;;;1.95;;
40449;SDS011;41787;53.570;10.032;2022-09-23T10:00:46;4.13;;;1.75;;
40449;SDS011;41787;53.570;10.032;2022-09-23T10:03:36;5.25;;;1.70;;
40449;SDS011;41787;53.570;10.032;2022-09-23T10:06:17;12.52;;;1.65;;
40449;SDS011;41787;53.570;10.032;2022-09-23T10:08:46;2.25;;;1.50;;
40449;SDS011;41787;53.570;10.032;2022-09-23T10:11:16;8.52;;;1.63;;
40449;SDS011;41787;53.570;10.032;2022-09-23T10:16:26;4.75;;;1.73;;
40449;SDS011;41787;53.570;10.032;2022-09-23T10:18:52;6.97;;;1.73;;
40449;SDS011;41787;53.570;10.032;2022-09-23T10:21:21;3.33;;;1.50;;
40449;SDS011;41787;53.570;10.032;2022-09-23T10:23:49;4.03;;;1.65;;
40449;SDS011;41787;53.570;10.032;2022-09-23T10:26:16;2.88;;;1.50;;
40449;SDS011;41787;53.570;10.032;2022-09-23T10:28:44;3.90;;;1.13;;
40449;SDS011;41787;53.570;10.032;2022-09-23T10:31:15;5.78;;;1.85;;
40449;SDS011;41787;53.570;10.032;2022-09-23T10:33:49;5.93;;;1.83;;
40449;SDS011;41787;53.570;10.032;2022-09-23T10:36:18;9.68;;;1.80;;
40449;SDS011;41787;53.570;10.032;2022-09-23T10:38:44;4.95;;;1.52;;
40449;SDS011;41787;53.570;10.032;2022-09-23T10:41:13;5.15;;;1.20;;
40449;SDS011;41787;53.570;10.032;2022-09-23T10:47:23;4.88;;;1.10;;
40449;SDS011;41787;53.570;10.032;2022-09-23T10:55:21;3.10;;;1.10;;
40449;SDS011;41787;53.570;10.032;2022-09-23T11:06:10;5.80;;;1.40;;
40449;SDS011;41787;53.570;10.032;2022-09-23T11:11:30;2.65;;;1.02;;
40449;SDS011;41787;53.570;10.032;2022-09-23T11:16:40;4.00;;;1.30;;
40449;SDS011;41787;53.570;10.032;2022-09-23T11:24:17;4.65;;;1.30;;
40449;SDS011;41787;53.570;10.032;2022-09-23T11:31:52;2.80;;;1.10;;
40449;SDS011;41787;53.570;10.032;2022-09-23T11:37:03;2.72;;;1.17;;
40449;SDS011;41787;53.570;10.032;2022-09-23T11:42:00;3.60;;;1.08;;
40449;SDS011;41787;53.570;10.032;2022-09-23T11:44:34;4.55;;;1.13;;
40449;SDS011;41787;53.570;10.032;2022-09-23T11:47:09;3.22;;;1.00;;
40449;SDS011;41787;53.570;10.032;2022-09-23T11:49:36;4.88;;;1.20;;
40449;SDS011;41787;53.570;10.032;2022-09-23T11:52:07;1.77;;;0.93;;
40449;SDS011;41787;53.570;10.032;2022-09-23T11:57:23;3.95;;;0.85;;
40449;SDS011;41787;53.570;10.032;2022-09-23T11:59:50;2.25;;;0.80;;
40449;SDS011;41787;53.570;10.032;2022-09-23T12:02:21;3.78;;;1.10;;
40449;SDS011;41787;53.570;10.032;2022-09-23T12:05:00;3.72;;;0.80;;
40449;SDS011;41787;53.570;10.032;2022-09-23T12:10:12;1.77;;;0.52;;
40449;SDS011;41787;53.570;10.032;2022-09-23T12:13:12;1.02;;;0.57;;
40449;SDS011;41787;53.570;10.032;2022-09-23T12:25:51;1.60;;;0.60;;
40449;SDS011;41787;53.570;10.032;2022-09-23T12:28:21;3.58;;;0.52;;
40449;SDS011;41787;53.570;10.032;2022-09-23T12:30:48;4.35;;;0.70;;
40449;SDS011;41787;53.570;10.032;2022-09-23T12:33:23;6.65;;;1.00;;
40449;SDS011;41787;53.570;10.032;2022-09-23T12:36:11;4.45;;;1.08;;
40449;SDS011;41787;53.570;10.032;2022-09-23T12:41:17;6.60;;;1.20;;
40449;SDS011;41787;53.570;10.032;2022-09-23T12:43:52;4.68;;;0.88;;
40449;SDS011;41787;53.570;10.032;2022-09-23T12:46:23;2.22;;;0.90;;
40449;SDS011;41787;53.570;10.032;2022-09-23T12:56:18;1.77;;;0.60;;
40449;SDS011;41787;53.570;10.032;2022-09-23T13:03:45;1.67;;;0.70;;
40449;SDS011;41787;53.570;10.032;2022-09-23T13:06:52;2.45;;;0.85;;
40449;SDS011;41787;53.570;10.032;2022-09-23T13:09:21;4.32;;;1.02;;
40449;SDS011;41787;53.570;10.032;2022-09-23T13:11:49;3.03;;;0.55;;
40449;SDS011;41787;53.570;10.032;2022-09-23T13:14:17;1.83;;;0.80;;
40449;SDS011;41787;53.570;10.032;2022-09-23T13:16:46;2.90;;;1.35;;
40449;SDS011;41787;53.570;10.032;2022-09-23T13:26:46;1.65;;;0.80;;
40449;SDS011;41787;53.570;10.032;2022-09-23T13:29:19;3.67;;;1.20;;
40449;SDS011;41787;53.570;10.032;2022-09-23T13:31:46;2.28;;;0.70;;
40449;SDS011;41787;53.570;10.032;2022-09-23T13:34:12;3.03;;;0.77;;
40449;SDS011;41787;53.570;10.032;2022-09-23T13:36:44;2.95;;;0.73;;
40449;SDS011;41787;53.570;10.032;2022-09-23T13:41:45;1.17;;;0.65;;
40449;SDS011;41787;53.570;10.032;2022-09-23T13:44:15;2.58;;;0.80;;
40449;SDS011;41787;53.570;10.032;2022-09-23T13:46:51;4.82;;;0.90;;
40449;SDS011;41787;53.570;10.032;2022-09-23T13:49:21;1.55;;;0.90;;
40449;SDS011;41787;53.570;10.032;2022-09-23T13:51:52;1.58;;;0.75;;
40449;SDS011;41787;53.570;10.032;2022-09-23T13:54:26;1.77;;;0.75;;
40449;SDS011;41787;53.570;10.032;2022-09-23T13:56:52;4.78;;;0.73;;
40449;SDS011;41787;53.570;10.032;2022-09-23T14:02:05;1.90;;;0.60;;
40449;SDS011;41787;53.570;10.032;2022-09-23T14:04:32;2.15;;;0.75;;
40449;SDS011;41787;53.570;10.032;2022-09-23T14:06:57;1.83;;;0.70;;
40449;SDS011;41787;53.570;10.032;2022-09-23T14:09:24;4.18;;;1.30;;
40449;SDS011;41787;53.570;10.032;2022-09-23T14:11:51;2.53;;;0.98;;
40449;SDS011;41787;53.570;10.032;2022-09-23T14:14:17;1.50;;;0.80;;
40449;SDS011;41787;53.570;10.032;2022-09-23T14:16:44;1.70;;;0.73;;
40449;SDS011;41787;53.570;10.032;2022-09-23T14:19:12;3.78;;;0.90;;
40449;SDS011;41787;53.570;10.032;2022-09-23T14:21:40;2.45;;;1.10;;
40449;SDS011;41787;53.570;10.032;2022-09-23T14:26:35;5.65;;;1.15;;
40449;SDS011;41787;53.570;10.032;2022-09-23T14:29:01;4.63;;;1.25;;
40449;SDS011;41787;53.570;10.032;2022-09-23T14:31:28;1.83;;;0.82;;
40449;SDS011;41787;53.570;10.032;2022-09-23T14:33:54;1.55;;;0.80;;
40449;SDS011;41787;53.570;10.032;2022-09-23T14:36:20;1.83;;;0.63;;
40449;SDS011;41787;53.570;10.032;2022-09-23T14:39:08;1.55;;;0.85;;
40449;SDS011;41787;53.570;10.032;2022-09-23T14:41:35;1.98;;;1.00;;
40449;SDS011;41787;53.570;10.032;2022-09-23T14:44:03;4.47;;;1.00;;
40449;SDS011;41787;53.570;10.032;2022-09-23T14:46:30;2.08;;;0.90;;
40449;SDS011;41787;53.570;10.032;2022-09-23T14:51:34;4.60;;;0.90;;
40449;SDS011;41787;53.570;10.032;2022-09-23T14:56:46;1.92;;;0.88;;
40449;SDS011;41787;53.570;10.032;2022-09-23T14:59:46;3.65;;;0.70;;
40449;SDS011;41787;53.570;10.032;2022-09-23T15:05:13;1.65;;;0.90;;
40449;SDS011;41787;53.570;10.032;2022-09-23T15:07:40;2.22;;;1.00;;
40449;SDS011;41787;53.570;10.032;2022-09-23T15:10:06;2.72;;;1.10;;
40449;SDS011;41787;53.570;10.032;2022-09-23T15:12:37;1.85;;;1.08;;
40449;SDS011;41787;53.570;10.032;2022-09-23T15:15:03;4.32;;;1.08;;
40449;SDS011;41787;53.570;10.032;2022-09-23T15:17:32;4.53;;;1.15;;
40449;SDS011;41787;53.570;10.032;2022-09-23T15:19:59;2.47;;;1.30;;
40449;SDS011;41787;53.570;10.032;2022-09-23T15:22:27;2.85;;;0.60;;
40449;SDS011;41787;53.570;10.032;2022-09-23T15:24:53;2.67;;;0.90;;
40449;SDS011;41787;53.570;10.032;2022-09-23T15:27:24;3.42;;;1.00;;
40449;SDS011;41787;53.570;10.032;2022-09-23T15:29:51;4.40;;;1.05;;
40449;SDS011;41787;53.570;10.032;2022-09-23T15:32:18;4.70;;;1.60;;
40449;SDS011;41787;53.570;10.032;2022-09-23T15:34:44;4.78;;;1.23;;
40449;SDS011;41787;53.570;10.032;2022-09-23T15:37:10;2.97;;;1.17;;
40449;SDS011;41787;53.570;10.032;2022-09-23T15:39:38;2.53;;;1.23;;
40449;SDS011;41787;53.570;10.032;2022-09-23T15:42:05;5.85;;;1.08;;
40449;SDS011;41787;53.570;10.032;2022-09-23T15:44:34;3.87;;;1.33;;
40449;SDS011;41787;53.570;10.032;2022-09-23T15:47:01;3.47;;;0.80;;
40449;SDS011;41787;53.570;10.032;2022-09-23T15:49:31;3.03;;;0.93;;
40449;SDS011;41787;53.570;10.032;2022-09-23T15:51:59;3.22;;;0.90;;
40449;SDS011;41787;53.570;10.032;2022-09-23T15:54:26;2.22;;;0.80;;
40449;SDS011;41787;53.570;10.032;2022-09-23T15:56:52;3.47;;;1.73;;
40449;SDS011;41787;53.570;10.032;2022-09-23T15:59:20;3.47;;;1.08;;
40449;SDS011;41787;53.570;10.032;2022-09-23T16:01:46;2.00;;;1.10;;
40449;SDS011;41787;53.570;10.032;2022-09-23T16:04:12;2.20;;;0.95;;
40449;SDS011;41787;53.570;10.032;2022-09-23T16:06:39;3.22;;;1.15;;
40449;SDS011;41787;53.570;10.032;2022-09-23T16:09:07;2.60;;;0.85;;
40449;SDS011;41787;53.570;10.032;2022-09-23T16:11:34;1.40;;;0.85;;
40449;SDS011;41787;53.570;10.032;2022-09-23T16:14:02;2.55;;;1.23;;
40449;SDS011;41787;53.570;10.032;2022-09-23T16:16:28;4.85;;;1.17;;
40449;SDS011;41787;53.570;10.032;2022-09-23T16:18:55;5.05;;;1.00;;
40449;SDS011;41787;53.570;10.032;2022-09-23T16:21:22;3.80;;;1.25;;
40449;SDS011;41787;53.570;10.032;2022-09-23T16:23:49;2.83;;;1.05;;
40449;SDS011;41787;53.570;10.032;2022-09-23T16:26:19;2.63;;;1.10;;
40449;SDS011;41787;53.570;10.032;2022-09-23T16:28:46;2.70;;;1.00;;
40449;SDS011;41787;53.570;10.032;2022-09-23T16:31:13;8.10;;;1.30;;
40449;SDS011;41787;53.570;10.032;2022-09-23T16:33:40;4.25;;;1.13;;
40449;SDS011;41787;53.570;10.032;2022-09-23T16:36:08;2.17;;;1.00;;
40449;SDS011;41787;53.570;10.032;2022-09-23T16:38:36;4.93;;;1.00;;
40449;SDS011;41787;53.570;10.032;2022-09-23T16:41:02;3.15;;;1.10;;
40449;SDS011;41787;53.570;10.032;2022-09-23T16:43:28;1.45;;;0.90;;
40449;SDS011;41787;53.570;10.032;2022-09-23T16:45:56;6.38;;;1.38;;
40449;SDS011;41787;53.570;10.032;2022-09-23T16:48:22;5.55;;;1.75;;
40449;SDS011;41787;53.570;10.032;2022-09-23T16:50:48;2.17;;;1.20;;
40449;SDS011;41787;53.570;10.032;2022-09-23T16:53:15;4.28;;;0.98;;
40449;SDS011;41787;53.570;10.032;2022-09-23T16:55:41;2.90;;;1.20;;
40449;SDS011;41787;53.570;10.032;2022-09-23T16:58:07;2.20;;;0.95;;
40449;SDS011;41787;53.570;10.032;2022-09-23T17:00:33;2.95;;;1.33;;
40449;SDS011;41787;53.570;10.032;2022-09-23T17:03:18;1.45;;;0.95;;
40449;SDS011;41787;53.570;10.032;2022-09-23T17:06:03;4.93;;;1.45;;
40449;SDS011;41787;53.570;10.032;2022-09-23T17:08:29;2.05;;;1.23;;
40449;SDS011;41787;53.570;10.032;2022-09-23T17:10:56;3.65;;;1.40;;
40449;SDS011;41787;53.570;10.032;2022-09-23T17:13:22;7.13;;;1.75;;
40449;SDS011;41787;53.570;10.032;2022-09-23T17:15:49;2.83;;;1.50;;
40449;SDS011;41787;53.570;10.032;2022-09-23T17:18:15;6.93;;;1.80;;
40449;SDS011;41787;53.570;10.032;2022-09-23T17:20:41;5.93;;;1.92;;
40449;SDS011;41787;53.570;10.032;2022-09-23T17:23:07;7.00;;;1.70;;